Time;durP1;ratioP1;P1;durP2;ratioP2;P2;SDS_P1;SDS_P2;PMS_P1;PMS_P2;Temp;Humidity;BMP_temperature;BMP_pressure;BME280_temperature;BME280_humidity;BME280_pressure;Samples;Min_cycle;Max_cycle;Signal;HPM_P1;HPM_P2
2022/03/27 00:00:19;;;;;;;5.57;4.25;;;7.00;99.90;;;;;;5111811;27;20039;-83
2022/03/27 00:02:45;;;;;;;6.70;3.63;;;6.90;99.90;;;;;;5120800;27;20027;-83
2022/03/27 00:05:12;;;;;;;9.02;4.97;;;6.90;99.90;;;;;;5138911;27;20047;-84
2022/03/27 00:07:38;;;;;;;9.25;4.55;;;6.80;99.90;;;;;;5120771;27;20511;-83
2022/03/27 00:10:04;;;;;;;7.20;4.25;;;6.90;99.90;;;;;;5115914;28;20051;-84
2022/03/27 00:12:30;;;;;;;10.70;5.00;;;6.90;99.90;;;;;;5117418;28;20064;-83
2022/03/27 00:14:55;;;;;;;13.38;5.82;;;6.90;99.90;;;;;;5131702;27;20095;-84
2022/03/27 00:17:21;;;;;;;9.63;5.10;;;6.90;99.90;;;;;;5127796;27;20031;-84
2022/03/27 00:19:46;;;;;;;7.97;4.22;;;6.80;99.90;;;;;;5123973;27;20397;-79
2022/03/27 00:22:12;;;;;;;10.23;4.18;;;6.80;99.90;;;;;;5130837;27;20137;-84
2022/03/27 00:24:37;;;;;;;7.32;3.92;;;6.90;99.90;;;;;;5106575;27;20056;-83
2022/03/27 00:27:03;;;;;;;7.72;4.80;;;6.90;99.90;;;;;;5113051;28;20677;-84
2022/03/27 00:29:29;;;;;;;6.30;4.53;;;7.00;99.90;;;;;;5123600;27;20046;-84
2022/03/27 00:31:54;;;;;;;10.80;5.72;;;7.00;99.90;;;;;;5115456;27;20039;-84
2022/03/27 00:34:21;;;;;;;8.00;4.47;;;7.00;99.90;;;;;;5092734;28;20120;-83
2022/03/27 00:36:48;;;;;;;8.32;5.22;;;7.00;99.90;;;;;;5091215;27;20044;-78
2022/03/27 00:39:14;;;;;;;6.15;4.38;;;7.00;99.90;;;;;;5105716;27;20036;-84
2022/03/27 00:41:39;;;;;;;9.73;5.30;;;7.10;99.90;;;;;;5129029;27;20080;-84
2022/03/27 00:44:06;;;;;;;7.40;5.85;;;7.10;99.90;;;;;;5119337;28;20128;-84
2022/03/27 00:46:31;;;;;;;12.18;4.70;;;7.00;99.90;;;;;;5128805;27;20508;-84
2022/03/27 00:48:57;;;;;;;7.28;5.38;;;7.00;99.90;;;;;;5113013;27;20051;-85
2022/03/27 00:51:23;;;;;;;10.13;5.03;;;6.90;99.90;;;;;;5121207;27;20028;-85
2022/03/27 00:53:48;;;;;;;9.70;5.32;;;7.00;99.90;;;;;;5108691;28;20085;-84
2022/03/27 00:56:14;;;;;;;17.17;5.40;;;7.00;99.90;;;;;;5110663;28;20039;-84
2022/03/27 00:58:40;;;;;;;9.55;4.55;;;7.00;99.90;;;;;;5106422;28;20044;-83
2022/03/27 01:01:18;;;;;;;10.50;4.85;;;7.00;99.90;;;;;;5116075;28;20047;-84
2022/03/27 01:03:44;;;;;;;8.25;4.97;;;7.00;99.90;;;;;;5099923;28;20393;-83
2022/03/27 01:06:28;;;;;;;9.10;5.60;;;7.00;99.90;;;;;;5091024;28;20178;-83
2022/03/27 01:11:38;;;;;;;7.40;4.93;;;6.90;99.90;;;;;;5121914;28;20039;-83
2022/03/27 01:14:03;;;;;;;10.65;4.85;;;6.90;99.90;;;;;;5119057;27;20047;-82
2022/03/27 01:16:55;;;;;;;9.68;5.65;;;7.00;99.90;;;;;;5115309;27;20035;-85
2022/03/27 01:19:21;;;;;;;9.70;5.88;;;7.00;99.90;;;;;;5117438;28;20107;-84
2022/03/27 01:21:47;;;;;;;11.98;6.78;;;7.00;99.90;;;;;;5138428;27;20058;-85
2022/03/27 01:24:16;;;;;;;12.02;7.30;;;7.00;99.90;;;;;;5139230;27;20047;-86
2022/03/27 01:26:43;;;;;;;14.50;7.05;;;7.00;99.90;;;;;;5135805;28;20039;-85
2022/03/27 01:29:08;;;;;;;16.00;9.68;;;7.00;99.90;;;;;;5118536;28;20055;-86
2022/03/27 01:31:35;;;;;;;15.40;8.65;;;7.00;99.90;;;;;;5117672;27;20031;-86
2022/03/27 01:34:02;;;;;;;19.70;9.25;;;7.10;99.90;;;;;;5106152;27;20122;-86
2022/03/27 01:36:34;;;;;;;16.42;8.52;;;7.10;99.90;;;;;;5106546;27;20031;-86
2022/03/27 01:39:00;;;;;;;19.98;8.25;;;7.00;99.90;;;;;;5133298;27;20039;-86
2022/03/27 01:41:26;;;;;;;11.10;7.40;;;7.00;99.90;;;;;;5115392;27;20042;-86
2022/03/27 01:43:51;;;;;;;14.25;7.45;;;7.10;99.90;;;;;;5109497;27;20043;-85
2022/03/27 01:46:18;;;;;;;14.13;6.80;;;7.00;99.90;;;;;;5137383;27;20047;-85
2022/03/27 01:48:44;;;;;;;12.98;6.70;;;7.10;99.90;;;;;;5128431;27;20063;-87
2022/03/27 01:51:09;;;;;;;16.25;8.13;;;7.10;99.90;;;;;;5112883;27;20111;-86
2022/03/27 01:53:39;;;;;;;17.77;8.25;;;7.00;99.90;;;;;;5103253;28;20035;-86
2022/03/27 01:56:07;;;;;;;14.50;7.05;;;7.00;99.90;;;;;;5130817;27;20088;-88
2022/03/27 01:58:36;;;;;;;14.45;8.82;;;6.90;99.90;;;;;;5099287;27;20126;-87
2022/03/27 02:01:01;;;;;;;15.00;6.57;;;7.00;99.90;;;;;;5125325;27;20039;-86
2022/03/27 02:03:28;;;;;;;12.77;7.07;;;7.00;99.90;;;;;;5111436;28;20474;-87
2022/03/27 02:05:57;;;;;;;14.02;6.53;;;7.00;99.90;;;;;;5092253;28;20044;-89
2022/03/27 02:08:23;;;;;;;14.98;6.95;;;7.00;99.90;;;;;;5132547;28;20054;-88
2022/03/27 02:10:50;;;;;;;17.48;7.47;;;7.00;99.90;;;;;;5138220;28;20031;-87
2022/03/27 02:13:18;;;;;;;18.95;7.70;;;6.90;99.90;;;;;;5132490;27;20031;-80
2022/03/27 02:15:46;;;;;;;17.73;8.55;;;7.00;99.90;;;;;;5135237;28;20036;-87
2022/03/27 02:18:12;;;;;;;12.43;7.00;;;7.00;99.90;;;;;;5102148;28;20508;-89
2022/03/27 02:20:39;;;;;;;13.13;6.03;;;7.00;99.90;;;;;;5142245;27;20043;-88
2022/03/27 02:23:06;;;;;;;10.80;7.07;;;7.00;99.90;;;;;;5114287;28;20101;-88
2022/03/27 02:25:32;;;;;;;18.30;8.13;;;7.00;99.90;;;;;;5096498;28;20035;-89
2022/03/27 02:27:58;;;;;;;14.00;7.40;;;7.00;99.90;;;;;;5118384;28;20513;-88
2022/03/27 02:30:23;;;;;;;14.00;7.57;;;7.00;99.90;;;;;;5098944;28;20408;-88
2022/03/27 02:32:49;;;;;;;12.88;6.80;;;7.00;99.90;;;;;;5085117;28;20044;-88
2022/03/27 02:35:14;;;;;;;16.23;7.22;;;7.00;99.90;;;;;;5106499;28;20073;-88
2022/03/27 02:37:40;;;;;;;14.27;6.07;;;7.00;99.90;;;;;;5111824;27;20044;-88
2022/03/27 02:40:07;;;;;;;12.20;7.30;;;7.00;99.90;;;;;;5112248;27;20079;-87
2022/03/27 02:42:32;;;;;;;12.75;7.20;;;6.90;99.90;;;;;;5109450;27;20432;-89
2022/03/27 02:44:58;;;;;;;16.08;6.68;;;6.90;99.90;;;;;;5124944;27;20039;-88
2022/03/27 02:47:24;;;;;;;14.13;7.22;;;6.80;99.90;;;;;;5115699;27;20122;-89
2022/03/27 02:49:50;;;;;;;16.90;8.13;;;6.80;99.90;;;;;;5113199;27;20044;-88
2022/03/27 02:52:16;;;;;;;14.57;6.70;;;6.80;99.90;;;;;;5116036;27;20516;-88
2022/03/27 02:54:42;;;;;;;15.13;5.72;;;6.80;99.90;;;;;;5135765;27;20040;-88
2022/03/27 02:57:07;;;;;;;17.50;7.43;;;6.70;99.90;;;;;;5119273;27;20466;-88
2022/03/27 02:59:33;;;;;;;15.13;6.32;;;6.80;99.90;;;;;;5111914;27;20264;-88
2022/03/27 03:02:01;;;;;;;13.63;5.35;;;6.70;99.90;;;;;;5109381;27;20063;-88
2022/03/27 03:04:26;;;;;;;14.98;6.72;;;6.70;99.90;;;;;;5112759;27;20041;-88
2022/03/27 03:06:53;;;;;;;15.23;7.07;;;6.80;99.90;;;;;;5132722;27;20122;-88
2022/03/27 03:09:19;;;;;;;16.73;7.18;;;6.80;99.90;;;;;;5130324;27;20083;-86
2022/03/27 03:11:44;;;;;;;12.05;7.35;;;6.70;99.90;;;;;;5131200;27;20031;-85
2022/03/27 03:14:11;;;;;;;16.02;7.13;;;6.80;99.90;;;;;;5109882;28;20087;-86
2022/03/27 03:16:38;;;;;;;11.38;6.63;;;6.70;99.90;;;;;;5110174;28;20090;-86
2022/03/27 03:19:05;;;;;;;13.95;7.80;;;6.70;99.90;;;;;;5104992;27;20050;-87
2022/03/27 03:21:31;;;;;;;13.75;5.90;;;6.70;99.90;;;;;;5110080;28;20035;-85
2022/03/27 03:23:57;;;;;;;11.65;7.97;;;6.60;99.90;;;;;;5110077;27;20047;-86
2022/03/27 03:26:23;;;;;;;18.75;8.45;;;6.50;99.90;;;;;;5111714;28;20039;-86
2022/03/27 03:28:49;;;;;;;10.90;6.72;;;6.40;99.90;;;;;;5093297;28;20039;-86
2022/03/27 03:31:14;;;;;;;16.50;7.32;;;6.30;99.90;;;;;;5111679;27;20028;-86
2022/03/27 03:33:41;;;;;;;21.08;6.68;;;6.30;99.90;;;;;;5094035;28;20398;-86
2022/03/27 03:36:07;;;;;;;22.80;9.48;;;6.30;99.90;;;;;;5122519;27;20047;-84
2022/03/27 03:38:33;;;;;;;15.35;7.07;;;6.30;99.90;;;;;;5105038;27;20036;-85
2022/03/27 03:40:59;;;;;;;17.02;7.78;;;6.30;99.90;;;;;;5112219;28;20031;-85
2022/03/27 03:43:25;;;;;;;15.30;6.70;;;6.20;99.90;;;;;;5111650;28;20488;-85
2022/03/27 03:45:50;;;;;;;20.10;7.72;;;6.30;99.90;;;;;;5099065;28;20039;-85
2022/03/27 03:48:16;;;;;;;19.58;7.45;;;6.40;99.90;;;;;;5101764;27;20046;-85
2022/03/27 03:50:42;;;;;;;14.65;7.85;;;6.30;99.90;;;;;;5129500;27;20039;-85
2022/03/27 03:53:08;;;;;;;14.02;7.93;;;6.30;99.90;;;;;;5108662;28;20095;-85
2022/03/27 03:55:34;;;;;;;19.58;8.45;;;6.30;99.90;;;;;;5113539;27;20051;-85
2022/03/27 03:58:01;;;;;;;17.52;6.45;;;6.30;99.90;;;;;;5110767;27;20036;-85
2022/03/27 04:00:27;;;;;;;15.82;8.00;;;6.20;99.90;;;;;;5126378;27;20137;-85
2022/03/27 04:02:53;;;;;;;16.63;7.55;;;6.20;99.90;;;;;;5108131;27;20190;-85
2022/03/27 04:05:19;;;;;;;10.85;6.55;;;6.20;99.90;;;;;;5115953;27;20043;-86
2022/03/27 04:07:44;;;;;;;12.27;7.97;;;6.10;99.90;;;;;;5109000;28;20493;-87
2022/03/27 04:10:10;;;;;;;17.67;7.93;;;6.10;99.90;;;;;;5112189;27;20042;-87
2022/03/27 04:12:36;;;;;;;18.75;6.60;;;6.10;99.90;;;;;;5125230;27;20046;-87
2022/03/27 04:15:02;;;;;;;14.77;7.65;;;6.00;99.90;;;;;;5085886;27;20053;-86
2022/03/27 04:17:28;;;;;;;14.18;6.90;;;6.00;99.90;;;;;;5121062;27;20132;-85
2022/03/27 04:19:54;;;;;;;16.70;7.07;;;6.00;99.90;;;;;;5111543;27;20072;-85
2022/03/27 04:22:19;;;;;;;15.38;6.72;;;6.00;99.90;;;;;;5112647;27;20060;-85
2022/03/27 04:24:45;;;;;;;15.60;7.88;;;6.00;99.90;;;;;;5102432;28;20052;-85
2022/03/27 04:27:10;;;;;;;22.08;9.63;;;5.90;99.90;;;;;;5109378;28;20078;-86
2022/03/27 04:29:36;;;;;;;12.23;7.13;;;5.90;99.90;;;;;;5094217;28;20050;-85
2022/03/27 04:32:02;;;;;;;36.47;9.82;;;5.80;99.90;;;;;;5100641;28;20040;-88
2022/03/27 04:34:28;;;;;;;30.48;8.25;;;5.80;99.90;;;;;;5087955;28;20050;-85
2022/03/27 04:36:54;;;;;;;14.50;7.75;;;5.80;99.90;;;;;;5108614;28;20028;-85
2022/03/27 04:39:20;;;;;;;17.80;8.48;;;5.80;99.90;;;;;;5109989;28;20089;-86
2022/03/27 04:41:46;;;;;;;18.65;8.55;;;5.80;99.90;;;;;;5126199;28;20405;-85
2022/03/27 04:44:13;;;;;;;16.10;7.03;;;5.80;99.90;;;;;;5125521;27;20049;-85
2022/03/27 04:46:38;;;;;;;25.35;9.05;;;5.80;99.90;;;;;;5105668;27;20521;-87
2022/03/27 04:49:04;;;;;;;20.35;8.40;;;5.80;99.90;;;;;;5118595;27;20039;-86
2022/03/27 04:51:30;;;;;;;36.75;11.15;;;5.80;99.90;;;;;;5113672;28;20071;-86
2022/03/27 04:53:56;;;;;;;47.78;10.40;;;5.80;99.90;;;;;;5117042;27;20050;-86
2022/03/27 04:56:22;;;;;;;42.13;9.45;;;5.80;99.90;;;;;;5100304;28;20064;-83
2022/03/27 04:58:47;;;;;;;27.77;9.23;;;5.80;99.90;;;;;;5115973;28;20044;-85
2022/03/27 05:01:13;;;;;;;29.02;8.75;;;5.70;99.90;;;;;;5118228;27;20032;-85
2022/03/27 05:03:39;;;;;;;34.92;10.20;;;5.70;99.90;;;;;;5132738;27;20042;-85
2022/03/27 05:06:05;;;;;;;65.80;10.68;;;5.70;99.90;;;;;;5127427;27;20117;-85
2022/03/27 05:08:33;;;;;;;111.25;12.52;;;5.60;99.90;;;;;;5120095;27;20040;-84
2022/03/27 05:10:59;;;;;;;104.72;12.98;;;5.60;99.90;;;;;;5096875;28;20092;-85
2022/03/27 05:13:25;;;;;;;120.78;10.55;;;5.60;99.90;;;;;;5102937;28;20036;-86
2022/03/27 05:15:50;;;;;;;148.85;11.55;;;5.50;99.90;;;;;;5126203;27;20039;-85
2022/03/27 05:18:17;;;;;;;98.53;12.38;;;5.50;99.90;;;;;;5124944;27;20561;-85
2022/03/27 05:20:44;;;;;;;71.93;7.65;;;5.40;99.90;;;;;;5137821;27;20099;-84
2022/03/27 05:23:10;;;;;;;55.95;7.50;;;5.30;99.90;;;;;;5112682;28;20055;-84
2022/03/27 05:25:45;;;;;;;52.92;7.05;;;5.30;99.90;;;;;;5099381;28;20044;-85
2022/03/27 05:28:11;;;;;;;8.35;5.50;;;5.20;99.90;;;;;;5095070;27;20048;-85
2022/03/27 05:30:38;;;;;;;27.50;6.50;;;5.30;99.90;;;;;;5122481;27;20077;-86
2022/03/27 05:33:04;;;;;;;41.20;6.88;;;5.20;99.90;;;;;;5115241;27;20050;-86
2022/03/27 05:35:30;;;;;;;20.15;5.97;;;5.20;99.90;;;;;;5119300;27;20031;-88
2022/03/27 05:37:58;;;;;;;13.38;5.25;;;5.20;99.90;;;;;;5112717;27;20040;-86
2022/03/27 05:40:24;;;;;;;20.15;6.20;;;5.20;99.90;;;;;;5099147;28;20059;-88
2022/03/27 05:42:51;;;;;;;15.45;5.00;;;5.10;99.90;;;;;;5118226;28;20061;-85
2022/03/27 05:45:18;;;;;;;7.95;4.68;;;5.20;99.90;;;;;;5127835;27;20043;-76
2022/03/27 05:47:44;;;;;;;9.10;4.70;;;5.20;99.90;;;;;;5128289;27;20070;-87
2022/03/27 05:50:11;;;;;;;11.30;5.35;;;5.30;99.90;;;;;;5120695;27;20492;-87
2022/03/27 05:52:37;;;;;;;34.72;6.63;;;5.30;99.90;;;;;;5104793;28;20071;-87
2022/03/27 05:55:04;;;;;;;14.55;6.47;;;5.30;99.90;;;;;;5117820;27;20036;-82
2022/03/27 05:57:30;;;;;;;27.58;6.13;;;5.30;99.90;;;;;;5115896;28;20032;-85
2022/03/27 05:59:56;;;;;;;37.80;7.65;;;5.40;99.90;;;;;;5106979;27;20194;-87
2022/03/27 06:02:21;;;;;;;11.25;5.93;;;5.40;99.90;;;;;;5111831;28;20084;-89
2022/03/27 06:04:47;;;;;;;12.15;7.45;;;5.40;99.90;;;;;;5115603;28;20075;-82
2022/03/27 06:07:13;;;;;;;9.57;4.88;;;5.40;99.90;;;;;;5114998;28;20048;-89
2022/03/27 06:09:39;;;;;;;8.82;4.55;;;5.60;99.90;;;;;;5113958;28;20487;-88
2022/03/27 06:12:05;;;;;;;7.50;4.20;;;5.60;99.90;;;;;;5099797;28;20047;-89
2022/03/27 06:14:31;;;;;;;10.10;4.53;;;5.60;99.90;;;;;;5097485;28;20044;-87
2022/03/27 06:16:58;;;;;;;14.75;5.50;;;5.70;99.90;;;;;;5114564;28;20108;-89
2022/03/27 06:19:23;;;;;;;8.35;3.72;;;5.70;99.90;;;;;;5129197;28;20028;-86
2022/03/27 06:21:49;;;;;;;7.85;4.63;;;5.80;99.90;;;;;;5145403;27;20062;-80
2022/03/27 06:24:15;;;;;;;6.97;4.03;;;5.80;99.90;;;;;;5146179;27;20051;-88
2022/03/27 06:26:41;;;;;;;15.55;5.47;;;5.80;99.90;;;;;;5123713;27;20464;-89
2022/03/27 06:29:10;;;;;;;10.40;4.65;;;5.90;99.90;;;;;;5128271;28;20114;-87
2022/03/27 06:31:38;;;;;;;9.23;4.20;;;5.90;99.90;;;;;;5135289;27;20032;-88
2022/03/27 06:34:04;;;;;;;12.60;4.72;;;5.90;99.90;;;;;;5120873;28;20051;-86
2022/03/27 06:36:30;;;;;;;17.98;4.65;;;6.00;99.90;;;;;;5129728;28;20039;-86
2022/03/27 06:38:56;;;;;;;12.15;3.78;;;6.00;99.90;;;;;;5138176;27;20073;-88
2022/03/27 06:41:21;;;;;;;10.98;3.40;;;6.10;99.90;;;;;;5141846;27;20077;-88
2022/03/27 06:43:47;;;;;;;15.40;5.03;;;6.20;99.90;;;;;;5138851;27;20039;-82
2022/03/27 06:46:16;;;;;;;22.10;5.63;;;6.40;99.90;;;;;;5135405;27;20100;-88
2022/03/27 06:48:46;;;;;;;21.63;6.53;;;6.50;99.90;;;;;;5133556;27;20047;-89
2022/03/27 06:51:11;;;;;;;19.60;5.82;;;6.50;99.90;;;;;;5132222;27;20070;-88
2022/03/27 06:53:37;;;;;;;25.42;9.55;;;6.50;99.90;;;;;;5097171;27;20090;-87
2022/03/27 06:56:03;;;;;;;39.15;8.85;;;6.50;99.90;;;;;;5109197;27;20095;-87
2022/03/27 06:58:29;;;;;;;37.38;10.27;;;6.60;99.90;;;;;;5125613;27;20089;-87
2022/03/27 07:03:39;;;;;;;47.30;11.93;;;6.70;99.90;;;;;;5110621;28;20079;-87
2022/03/27 07:06:04;;;;;;;41.63;9.43;;;6.80;99.90;;;;;;5105601;28;20077;-86
2022/03/27 07:08:30;;;;;;;36.03;8.80;;;6.90;99.90;;;;;;5093977;28;20044;-86
2022/03/27 07:10:56;;;;;;;39.85;8.73;;;6.80;99.90;;;;;;5095601;28;20067;-86
2022/03/27 07:13:22;;;;;;;43.10;10.32;;;6.90;99.90;;;;;;5095696;28;20071;-85
2022/03/27 07:15:49;;;;;;;44.25;9.38;;;7.00;99.90;;;;;;5106745;28;20044;-86
2022/03/27 07:18:17;;;;;;;37.05;9.80;;;7.20;99.90;;;;;;5100459;28;20075;-85
2022/03/27 07:20:44;;;;;;;43.45;10.10;;;7.30;99.90;;;;;;5083787;28;20428;-86
2022/03/27 07:23:12;;;;;;;30.23;7.90;;;7.40;99.90;;;;;;5103585;28;20076;-85
2022/03/27 07:25:41;;;;;;;38.08;8.60;;;7.50;99.90;;;;;;5096335;28;20050;-86
2022/03/27 07:28:08;;;;;;;44.60;8.75;;;7.50;99.90;;;;;;5095760;28;20138;-84
2022/03/27 07:30:35;;;;;;;33.33;7.63;;;7.60;99.90;;;;;;5096228;28;20109;-86
2022/03/27 07:33:01;;;;;;;61.55;12.05;;;7.70;99.90;;;;;;5115887;28;20504;-85
2022/03/27 07:35:27;;;;;;;28.23;8.20;;;7.70;99.90;;;;;;5112783;28;20031;-85
2022/03/27 07:37:53;;;;;;;33.60;7.47;;;7.80;99.90;;;;;;5096024;28;20089;-85
2022/03/27 07:40:20;;;;;;;35.60;7.82;;;7.90;99.90;;;;;;5116571;28;20693;-88
2022/03/27 07:42:50;;;;;;;33.50;8.57;;;8.00;99.90;;;;;;5106099;27;20074;-87
2022/03/27 07:45:21;;;;;;;35.10;8.75;;;8.00;99.90;;;;;;5111135;28;20044;-85
2022/03/27 07:47:51;;;;;;;36.47;10.07;;;8.20;99.90;;;;;;5130690;28;20019;-83
2022/03/27 07:50:18;;;;;;;42.25;10.73;;;8.30;99.90;;;;;;5123556;28;20044;-81
2022/03/27 07:52:45;;;;;;;40.47;8.43;;;8.40;99.90;;;;;;5130055;28;20085;-79
2022/03/27 07:55:13;;;;;;;39.88;8.68;;;8.30;99.90;;;;;;5133872;27;20040;-87
2022/03/27 07:57:39;;;;;;;42.88;10.23;;;8.30;99.90;;;;;;5120610;27;20047;-87
2022/03/27 08:00:10;;;;;;;44.33;10.05;;;8.30;99.90;;;;;;5127501;27;20054;-86
2022/03/27 08:02:37;;;;;;;40.70;11.05;;;8.30;99.90;;;;;;5098715;28;20111;-86
2022/03/27 08:05:04;;;;;;;35.67;8.43;;;8.40;99.90;;;;;;5091830;28;20432;-85
2022/03/27 08:07:30;;;;;;;27.13;8.27;;;8.50;99.90;;;;;;5096050;27;20093;-85
2022/03/27 08:09:55;;;;;;;31.55;8.98;;;8.40;99.90;;;;;;5097684;27;20043;-84
2022/03/27 08:12:21;;;;;;;29.83;7.40;;;8.60;99.90;;;;;;5111935;28;20085;-84
2022/03/27 08:14:48;;;;;;;35.28;11.48;;;8.70;99.90;;;;;;5110965;28;20050;-79
2022/03/27 08:17:17;;;;;;;44.40;10.13;;;8.70;99.90;;;;;;5111907;28;20482;-83
2022/03/27 08:19:47;;;;;;;43.03;13.50;;;8.80;99.90;;;;;;5127682;27;20544;-80
2022/03/27 08:22:13;;;;;;;47.28;10.30;;;8.70;99.90;;;;;;5105201;28;20105;-81
2022/03/27 08:24:39;;;;;;;38.30;8.95;;;9.00;99.90;;;;;;5097887;28;20041;-80
2022/03/27 08:27:06;;;;;;;40.75;9.40;;;9.00;99.90;;;;;;5131479;27;20513;-78
2022/03/27 08:29:37;;;;;;;50.85;11.77;;;8.90;99.90;;;;;;5111696;27;20433;-82
2022/03/27 08:32:05;;;;;;;34.80;8.52;;;9.00;99.90;;;;;;5110379;28;20043;-78
2022/03/27 08:34:34;;;;;;;46.78;10.48;;;9.10;99.90;;;;;;5108831;27;20520;-82
2022/03/27 08:37:02;;;;;;;44.42;9.50;;;9.10;99.90;;;;;;5102076;28;20560;-82
2022/03/27 08:39:28;;;;;;;29.40;7.68;;;9.20;99.90;;;;;;5122976;27;20046;-79
2022/03/27 08:41:55;;;;;;;31.83;6.95;;;9.20;99.90;;;;;;5130479;27;20054;-78
2022/03/27 08:44:23;;;;;;;29.58;9.23;;;9.20;99.90;;;;;;5127012;27;20047;-78
2022/03/27 08:46:50;;;;;;;33.17;7.78;;;9.30;99.90;;;;;;5117396;28;20047;-81
2022/03/27 08:49:34;;;;;;;36.03;9.82;;;9.40;99.90;;;;;;5125507;27;20126;-80
2022/03/27 08:52:02;;;;;;;44.88;9.95;;;9.40;99.90;;;;;;5130622;27;20046;-82
2022/03/27 08:54:40;;;;;;;29.65;7.55;;;9.50;99.90;;;;;;5095018;28;20067;-83
2022/03/27 08:57:30;;;;;;;31.55;7.28;;;9.40;99.90;;;;;;5111492;28;20050;-83
2022/03/27 08:59:57;;;;;;;;;;;9.60;99.90;;;;;;5093063;28;20090;-84
2022/03/27 09:02:24;;;;;;;28.83;7.22;;;9.60;99.90;;;;;;5110287;28;19927;-85
2022/03/27 09:04:53;;;;;;;29.40;9.07;;;9.70;99.90;;;;;;5124877;27;20035;-85
2022/03/27 09:07:23;;;;;;;38.90;10.27;;;9.80;99.90;;;;;;5121425;27;20036;-85
2022/03/27 09:09:53;;;;;;;40.05;8.50;;;9.80;99.90;;;;;;5110454;28;20068;-87
2022/03/27 09:12:19;;;;;;;53.50;12.80;;;9.90;99.90;;;;;;5093268;28;20402;-88
2022/03/27 09:14:45;;;;;;;37.53;9.57;;;9.90;99.90;;;;;;5115136;28;20043;-85
2022/03/27 09:17:12;;;;;;;40.60;8.40;;;10.00;99.90;;;;;;5119929;28;20058;-86
2022/03/27 09:19:51;;;;;;;45.45;11.18;;;10.00;99.90;;;;;;5131967;27;20409;-87
2022/03/27 09:22:17;;;;;;;44.97;10.45;;;10.10;99.90;;;;;;5122352;27;20188;-78
2022/03/27 09:24:47;;;;;;;34.17;10.43;;;10.20;99.90;;;;;;5111847;27;20095;-86
2022/03/27 09:27:14;;;;;;;35.38;7.63;;;10.30;99.90;;;;;;5116448;27;20393;-86
2022/03/27 09:30:06;;;;;;;35.80;8.80;;;10.20;99.90;;;;;;5108303;28;20055;-87
2022/03/27 09:32:37;;;;;;;39.63;8.35;;;10.40;99.90;;;;;;5121931;27;20051;-86
2022/03/27 09:35:06;;;;;;;31.83;7.43;;;10.40;99.90;;;;;;5115334;27;20039;-80
2022/03/27 09:37:38;;;;;;;32.40;7.07;;;10.40;99.90;;;;;;5115577;27;20039;-86
2022/03/27 09:40:08;;;;;;;28.58;7.65;;;10.40;99.90;;;;;;5115726;27;20140;-85
2022/03/27 09:42:34;;;;;;;;;;;10.50;99.90;;;;;;5101705;28;20040;-86
2022/03/27 09:45:19;;;;;;;35.95;7.47;;;10.60;99.90;;;;;;5108037;28;19920;-78
2022/03/27 09:47:48;;;;;;;34.58;8.52;;;10.60;99.90;;;;;;5133195;27;20035;-84
2022/03/27 09:50:32;;;;;;;33.47;8.23;;;10.70;99.90;;;;;;5135266;27;20035;-84
2022/03/27 09:53:20;;;;;;;22.88;8.00;;;10.70;99.90;;;;;;5137351;27;20126;-83
2022/03/27 09:55:57;;;;;;;41.63;8.20;;;10.70;99.90;;;;;;5116315;28;20082;-84
2022/03/27 09:58:32;;;;;;;33.38;10.75;;;10.70;99.90;;;;;;5118068;28;20043;-84
2022/03/27 10:01:19;;;;;;;32.58;7.38;;;10.60;99.90;;;;;;5109541;28;20048;-84
2022/03/27 10:04:16;;;;;;;33.50;7.88;;;11.00;99.90;;;;;;5120425;28;20053;-86
2022/03/27 10:06:43;;;;;;;50.58;9.98;;;11.00;99.90;;;;;;5112935;27;20045;-85
2022/03/27 10:09:11;;;;;;;26.25;7.30;;;11.10;99.90;;;;;;5122028;27;20039;-85
2022/03/27 10:11:38;;;;;;;29.92;5.97;;;11.00;99.90;;;;;;5110515;28;20578;-82
2022/03/27 10:14:06;;;;;;;23.52;6.65;;;11.00;99.90;;;;;;5092845;28;20413;-84
2022/03/27 10:16:37;;;;;;;33.55;7.93;;;11.20;99.90;;;;;;5097952;27;20044;-85
2022/03/27 10:19:08;;;;;;;17.42;4.70;;;11.00;99.90;;;;;;5090816;28;20040;-84
2022/03/27 10:21:36;;;;;;;23.45;5.32;;;11.20;99.90;;;;;;5110749;27;20040;-83
2022/03/27 10:24:11;;;;;;;31.00;7.55;;;11.30;99.90;;;;;;5111882;27;20060;-85
2022/03/27 10:26:39;;;;;;;36.72;7.82;;;11.20;99.90;;;;;;5111841;28;20126;-84
2022/03/27 10:29:06;;;;;;;26.02;5.30;;;11.30;99.90;;;;;;5111417;28;20597;-83
2022/03/27 10:31:32;;;;;;;38.03;7.57;;;11.10;99.90;;;;;;5118092;27;20042;-83
2022/03/27 10:34:01;;;;;;;27.48;6.05;;;11.20;99.90;;;;;;5130929;28;20071;-82
2022/03/27 10:36:36;;;;;;;29.48;6.55;;;11.40;99.90;;;;;;5107542;28;20382;-84
2022/03/27 10:39:45;;;;;;;31.58;7.00;;;11.50;99.90;;;;;;5120419;28;20059;-83
2022/03/27 10:42:48;;;;;;;17.52;4.68;;;11.50;99.90;;;;;;5103128;28;20496;-84
2022/03/27 10:45:19;;;;;;;18.55;5.43;;;11.50;99.90;;;;;;5092562;28;20466;-84
2022/03/27 10:48:14;;;;;;;24.73;5.20;;;11.60;99.90;;;;;;5122000;27;20035;-81
2022/03/27 10:50:49;;;;;;;15.57;4.53;;;11.90;99.90;;;;;;5089649;28;20130;-82
2022/03/27 10:53:15;;;;;;;18.25;4.50;;;12.00;99.90;;;;;;5099365;28;20039;-82
2022/03/27 10:55:46;;;;;;;17.23;3.53;;;12.00;99.90;;;;;;5110864;27;20044;-83
2022/03/27 10:58:37;;;;;;;12.25;4.32;;;12.30;99.90;;;;;;5112094;28;20134;-82
2022/03/27 11:01:21;;;;;;;25.25;6.75;;;12.10;99.90;;;;;;5111149;28;20069;-83
2022/03/27 11:03:52;;;;;;;16.45;4.55;;;12.20;99.90;;;;;;5111241;27;20126;-81
2022/03/27 11:06:26;;;;;;;12.77;4.15;;;12.20;99.90;;;;;;5105653;27;20091;-84
2022/03/27 11:08:54;;;;;;;18.77;5.40;;;12.30;99.90;;;;;;5127739;27;20043;-83
2022/03/27 11:11:38;;;;;;;17.65;4.47;;;12.20;99.90;;;;;;5091999;28;20044;-83
2022/03/27 11:14:05;;;;;;;30.55;6.15;;;12.30;99.90;;;;;;5091524;28;20051;-81
2022/03/27 11:16:33;;;;;;;22.58;6.60;;;12.30;99.90;;;;;;5099647;27;20062;-83
2022/03/27 11:18:59;;;;;;;20.73;5.68;;;12.30;99.90;;;;;;5122925;27;20125;-83
2022/03/27 11:21:27;;;;;;;17.90;4.78;;;12.50;99.90;;;;;;5123045;27;20066;-80
2022/03/27 11:24:03;;;;;;;19.38;5.35;;;12.50;99.90;;;;;;5098941;28;20135;-81
2022/03/27 11:26:31;;;;;;;17.25;3.75;;;12.50;99.90;;;;;;5116925;27;20043;-81
2022/03/27 11:29:04;;;;;;;16.83;3.83;;;12.50;99.90;;;;;;5107528;28;20442;-83
2022/03/27 11:31:32;;;;;;;14.98;3.90;;;12.60;99.90;;;;;;5117726;27;20085;-83
2022/03/27 11:34:14;;;;;;;14.80;4.07;;;12.60;99.90;;;;;;5121927;28;20424;-82
2022/03/27 11:37:09;;;;;;;15.70;3.55;;;12.60;99.90;;;;;;5119707;27;20045;-81
2022/03/27 11:39:37;;;;;;;13.85;2.67;;;12.70;99.90;;;;;;5094109;28;20185;-81
2022/03/27 11:42:25;;;;;;;18.52;3.72;;;12.50;99.90;;;;;;5091688;28;20040;-82
2022/03/27 11:45:13;;;;;;;18.75;4.43;;;12.60;99.90;;;;;;5103930;27;20035;-81
2022/03/27 11:47:44;;;;;;;13.20;3.45;;;12.70;99.90;;;;;;5114158;27;20050;-80
2022/03/27 11:50:21;;;;;;;16.73;5.28;;;12.70;99.90;;;;;;5108218;27;20486;-81
2022/03/27 11:52:47;;;;;;;21.90;4.45;;;12.80;99.90;;;;;;5118547;27;20531;-78
2022/03/27 11:55:14;;;;;;;12.85;3.13;;;12.90;99.90;;;;;;5110651;27;20043;-81
2022/03/27 11:57:51;;;;;;;21.27;5.25;;;12.70;99.90;;;;;;5110566;28;20050;-80
2022/03/27 12:00:32;;;;;;;16.45;3.10;;;12.90;99.90;;;;;;5110494;28;20044;-77
2022/03/27 12:02:58;;;;;;;11.32;3.90;;;13.10;99.90;;;;;;5090306;28;20115;-80
2022/03/27 12:05:33;;;;;;;18.67;4.35;;;13.00;99.90;;;;;;5128663;27;20437;-80
2022/03/27 12:07:59;;;;;;;8.73;3.38;;;13.00;99.90;;;;;;5127966;27;20038;-80
2022/03/27 12:10:26;;;;;;;16.17;5.15;;;13.10;99.90;;;;;;5095285;27;20486;-78
2022/03/27 12:13:04;;;;;;;14.52;3.42;;;13.00;99.90;;;;;;5105590;28;20047;-78
2022/03/27 12:15:49;;;;;;;12.73;3.47;;;13.00;99.90;;;;;;5127717;27;20481;-77
2022/03/27 12:18:33;;;;;;;12.50;3.08;;;13.30;99.90;;;;;;5098550;28;20044;-78
2022/03/27 12:21:05;;;;;;;16.08;2.47;;;13.10;99.90;;;;;;5089707;28;20059;-79
2022/03/27 12:23:36;;;;;;;12.98;2.95;;;13.30;99.90;;;;;;5108575;28;20051;-77
2022/03/27 12:29:39;;;;;;;14.98;4.75;;;13.20;99.90;;;;;;5115255;27;20048;-77
2022/03/27 12:31:36;;;;;;;12.63;2.70;;;13.30;99.90;;;;;;5110148;28;20051;-78
2022/03/27 12:34:03;;;;;;;15.93;4.93;;;13.20;99.90;;;;;;5113073;28;20046;-77
2022/03/27 12:36:28;;;;;;;11.57;2.97;;;13.50;99.90;;;;;;5092181;27;20054;-78
2022/03/27 12:38:54;;;;;;;10.40;2.35;;;13.30;99.90;;;;;;5101874;28;20047;-78
2022/03/27 12:41:37;;;;;;;14.43;2.85;;;13.70;99.90;;;;;;5109303;28;20446;-78
2022/03/27 12:44:03;;;;;;;14.52;3.83;;;13.60;99.90;;;;;;5120295;28;20052;-78
2022/03/27 12:46:31;;;;;;;14.60;4.25;;;13.40;99.90;;;;;;5115965;27;20043;-78
2022/03/27 12:49:05;;;;;;;22.65;4.72;;;13.70;99.90;;;;;;5129743;27;20083;-78
2022/03/27 12:51:31;;;;;;;18.10;4.05;;;13.60;99.90;;;;;;5124502;27;20035;-77
2022/03/27 12:54:07;;;;;;;16.88;4.22;;;13.50;99.90;;;;;;5106161;28;20046;-77
2022/03/27 12:56:34;;;;;;;13.45;3.60;;;13.30;99.90;;;;;;5108636;27;20048;-77
2022/03/27 12:59:20;;;;;;;11.57;3.50;;;13.60;99.90;;;;;;5108149;27;20047;-77
2022/03/27 13:01:46;;;;;;;20.77;2.78;;;13.60;99.90;;;;;;5106059;28;20039;-78